Time;durP1;ratioP1;P1;durP2;ratioP2;P2;SDS_P1;SDS_P2;PMS_P1;PMS_P2;Temp;Humidity;BMP_temperature;BMP_pressure;BME280_temperature;BME280_humidity;BME280_pressure;Samples;Min_cycle;Max_cycle;Signal;HPM_P1;HPM_P2
2022/02/22 00:01:11;;;;;;;10.10;1.40;;;6.90;99.90;;;;;;4977318;28;20490;-77
2022/02/22 00:03:37;;;;;;;7.77;1.27;;;6.90;99.90;;;;;;4977898;28;20030;-76
2022/02/22 00:06:03;;;;;;;5.03;1.03;;;6.90;99.90;;;;;;4994967;28;20034;-76
2022/02/22 00:08:29;;;;;;;6.43;1.00;;;6.90;99.90;;;;;;4978275;28;20035;-79
2022/02/22 00:10:55;;;;;;;3.10;0.80;;;6.80;99.90;;;;;;4977431;28;20026;-77
2022/02/22 00:13:20;;;;;;;6.73;1.13;;;6.90;99.90;;;;;;4978151;28;20018;-76
2022/02/22 00:15:46;;;;;;;4.50;0.80;;;6.90;99.90;;;;;;4994319;28;20035;-77
2022/02/22 00:18:12;;;;;;;6.30;0.67;;;6.80;99.90;;;;;;4994754;28;20402;-76
2022/02/22 00:20:37;;;;;;;6.63;1.50;;;6.90;99.90;;;;;;4994976;28;20532;-77
2022/02/22 00:23:05;;;;;;;7.67;1.10;;;6.80;99.90;;;;;;4977147;28;20025;-77
2022/02/22 00:25:31;;;;;;;7.67;1.10;;;6.80;99.90;;;;;;4994384;28;20030;-77
2022/02/22 00:27:56;;;;;;;4.40;1.00;;;6.90;99.90;;;;;;4994204;28;20037;-77
2022/02/22 00:30:22;;;;;;;5.37;1.33;;;6.80;99.90;;;;;;4977268;28;20026;-76
2022/02/22 00:32:48;;;;;;;5.17;1.10;;;6.90;99.90;;;;;;4976820;28;20023;-76
2022/02/22 00:35:13;;;;;;;5.40;1.23;;;6.90;99.90;;;;;;4977325;28;20058;-77
2022/02/22 00:37:40;;;;;;;7.60;1.40;;;6.90;99.90;;;;;;4977200;28;20030;-76
2022/02/22 00:40:07;;;;;;;9.27;1.33;;;6.90;99.90;;;;;;4977338;28;20027;-77
2022/02/22 00:42:33;;;;;;;6.00;0.80;;;6.90;99.90;;;;;;4977201;28;20030;-78
2022/02/22 00:44:59;;;;;;;4.57;0.70;;;6.90;99.90;;;;;;4976399;28;20238;-77
2022/02/22 00:47:25;;;;;;;8.63;1.30;;;6.90;99.90;;;;;;4976809;28;20072;-77
2022/02/22 00:49:51;;;;;;;7.97;1.87;;;6.90;99.90;;;;;;4977051;28;20038;-77
2022/02/22 00:52:17;;;;;;;5.53;1.00;;;6.90;99.90;;;;;;4977678;28;20030;-77
2022/02/22 00:54:42;;;;;;;6.73;1.07;;;6.90;99.90;;;;;;4977252;28;20031;-79
2022/02/22 00:57:08;;;;;;;7.33;1.20;;;6.90;99.90;;;;;;4977862;28;20023;-77
2022/02/22 00:59:34;;;;;;;3.67;0.90;;;6.90;99.90;;;;;;4977156;28;20463;-77
2022/02/22 01:01:59;;;;;;;7.83;1.20;;;6.90;99.90;;;;;;4976736;28;20113;-76
2022/02/22 01:04:25;;;;;;;8.37;1.00;;;6.90;99.90;;;;;;4994607;28;20030;-77
2022/02/22 01:06:51;;;;;;;5.87;1.10;;;6.90;99.90;;;;;;4976107;28;20101;-77
2022/02/22 01:09:16;;;;;;;4.37;1.00;;;6.90;99.90;;;;;;4976351;28;20030;-77
2022/02/22 01:11:43;;;;;;;3.77;1.10;;;6.90;99.90;;;;;;4992927;28;20022;-77
2022/02/22 01:14:09;;;;;;;6.70;1.17;;;6.90;99.90;;;;;;4976590;28;20165;-76
2022/02/22 01:16:35;;;;;;;6.70;1.20;;;7.00;99.90;;;;;;4976587;28;20084;-77
2022/02/22 01:19:01;;;;;;;3.40;1.30;;;7.00;99.90;;;;;;4976507;28;20031;-77
2022/02/22 01:21:27;;;;;;;5.40;1.13;;;6.90;99.90;;;;;;4993639;28;20046;-78
2022/02/22 01:23:52;;;;;;;5.13;1.10;;;6.90;99.90;;;;;;4993414;28;20022;-78
2022/02/22 01:26:18;;;;;;;4.93;1.20;;;6.90;99.90;;;;;;4976620;28;20034;-78
2022/02/22 01:28:44;;;;;;;5.37;1.43;;;6.90;99.90;;;;;;4976118;28;20042;-77
2022/02/22 01:31:10;;;;;;;6.17;1.37;;;6.90;99.90;;;;;;4976577;28;20475;-77
2022/02/22 01:33:36;;;;;;;10.50;0.80;;;6.90;99.90;;;;;;4976913;28;20531;-77
2022/02/22 01:36:02;;;;;;;4.50;0.97;;;6.80;99.90;;;;;;4993641;28;20030;-76
2022/02/22 01:38:28;;;;;;;6.73;1.00;;;6.80;99.90;;;;;;4976867;28;20034;-76
2022/02/22 01:40:56;;;;;;;6.33;0.90;;;6.90;99.90;;;;;;4976262;28;20036;-77
2022/02/22 01:43:22;;;;;;;7.23;1.07;;;6.80;99.90;;;;;;4976900;28;20034;-76
2022/02/22 01:45:48;;;;;;;5.87;1.07;;;6.80;99.90;;;;;;4976141;28;20045;-77
2022/02/22 01:48:14;;;;;;;4.43;1.10;;;6.80;99.90;;;;;;4976271;28;20027;-77
2022/02/22 01:50:40;;;;;;;4.07;0.80;;;6.80;99.90;;;;;;4976663;28;20514;-77
2022/02/22 01:53:05;;;;;;;4.87;1.10;;;6.80;99.90;;;;;;4976185;28;20030;-77
2022/02/22 01:55:32;;;;;;;7.53;1.17;;;6.80;99.90;;;;;;4976472;28;20204;-76
2022/02/22 01:57:58;;;;;;;3.83;0.80;;;6.80;99.90;;;;;;4975799;28;20066;-76
2022/02/22 02:00:26;;;;;;;3.40;1.00;;;6.80;99.90;;;;;;4976410;28;20037;-77
2022/02/22 02:02:55;;;;;;;3.23;0.70;;;6.80;99.90;;;;;;4975875;28;20510;-77
2022/02/22 02:05:22;;;;;;;5.00;1.00;;;6.80;99.90;;;;;;4976342;28;20039;-77
2022/02/22 02:07:48;;;;;;;6.10;0.90;;;6.80;99.90;;;;;;4975748;28;20033;-76
2022/02/22 02:10:13;;;;;;;4.67;0.87;;;6.80;99.90;;;;;;4993526;28;20030;-77
2022/02/22 02:12:40;;;;;;;5.23;0.80;;;6.80;99.90;;;;;;4976581;28;20030;-77
2022/02/22 02:15:07;;;;;;;7.63;1.03;;;6.80;99.90;;;;;;4976262;28;20038;-78
2022/02/22 02:17:34;;;;;;;5.37;0.80;;;6.80;99.90;;;;;;4976462;28;20030;-78
2022/02/22 02:20:01;;;;;;;6.53;1.40;;;6.80;99.90;;;;;;4975964;28;20050;-77
2022/02/22 02:22:27;;;;;;;4.73;1.00;;;6.80;99.90;;;;;;4976263;28;20023;-76
2022/02/22 02:24:53;;;;;;;2.80;0.80;;;6.80;99.90;;;;;;4978094;28;20027;-77
2022/02/22 02:27:18;;;;;;;7.07;1.07;;;6.80;99.90;;;;;;4980422;28;20026;-77
2022/02/22 02:29:45;;;;;;;3.30;0.90;;;6.80;99.90;;;;;;4997518;28;20034;-76
2022/02/22 02:32:10;;;;;;;6.40;1.50;;;6.80;99.90;;;;;;4979395;28;20096;-75
2022/02/22 02:34:36;;;;;;;7.97;0.90;;;6.80;99.90;;;;;;4979822;28;20027;-76
2022/02/22 02:37:02;;;;;;;7.47;0.90;;;6.80;99.90;;;;;;4979314;28;20069;-76
2022/02/22 02:39:28;;;;;;;4.43;1.10;;;6.80;99.90;;;;;;4979748;28;20452;-76
2022/02/22 02:41:53;;;;;;;4.60;1.43;;;6.80;99.90;;;;;;4979226;28;20463;-76
2022/02/22 02:44:21;;;;;;;6.23;0.63;;;6.80;99.90;;;;;;4979644;28;20029;-76
2022/02/22 02:46:47;;;;;;;6.83;0.70;;;6.80;99.90;;;;;;4996845;28;20070;-77
2022/02/22 02:49:14;;;;;;;6.07;1.17;;;6.80;99.90;;;;;;4997131;28;20124;-76
2022/02/22 02:51:41;;;;;;;5.30;0.90;;;6.70;99.90;;;;;;4979796;28;20030;-76
2022/02/22 02:54:08;;;;;;;3.67;1.07;;;6.70;99.90;;;;;;4979053;28;20034;-76
2022/02/22 02:56:34;;;;;;;3.97;0.83;;;6.70;99.90;;;;;;4979496;28;20041;-76
2022/02/22 02:59:03;;;;;;;4.80;1.13;;;6.70;99.90;;;;;;4978975;28;20026;-77
2022/02/22 03:01:31;;;;;;;3.90;1.00;;;6.70;99.90;;;;;;4979478;28;20054;-76
2022/02/22 03:03:57;;;;;;;4.47;0.90;;;6.60;99.90;;;;;;4978784;28;20128;-77
2022/02/22 03:06:23;;;;;;;5.50;0.90;;;6.60;99.90;;;;;;4979335;28;20426;-76
2022/02/22 03:08:49;;;;;;;4.00;1.30;;;6.60;99.90;;;;;;4978976;28;20033;-77
2022/02/22 03:11:14;;;;;;;4.37;1.20;;;6.60;99.90;;;;;;4979153;28;20034;-77
2022/02/22 03:13:41;;;;;;;3.90;0.90;;;6.60;99.90;;;;;;4979322;28;20022;-76
2022/02/22 03:16:07;;;;;;;4.43;1.07;;;6.60;99.90;;;;;;4978642;28;20042;-76
2022/02/22 03:18:33;;;;;;;3.20;0.90;;;6.60;99.90;;;;;;4979136;28;20463;-76
2022/02/22 03:20:59;;;;;;;4.40;1.20;;;6.60;99.90;;;;;;4978300;28;20050;-76
2022/02/22 03:23:25;;;;;;;2.60;1.00;;;6.60;99.90;;;;;;4979169;28;20088;-76
2022/02/22 03:25:50;;;;;;;7.73;1.00;;;6.50;99.90;;;;;;4978677;28;20031;-77
2022/02/22 03:28:16;;;;;;;4.13;1.07;;;6.50;99.90;;;;;;4978857;28;20038;-76
2022/02/22 03:30:42;;;;;;;2.30;0.70;;;6.50;99.90;;;;;;4979161;28;20026;-76
2022/02/22 03:33:10;;;;;;;7.00;1.20;;;6.50;99.90;;;;;;4978626;28;20483;-77
2022/02/22 03:35:36;;;;;;;7.80;1.33;;;6.60;99.90;;;;;;4978972;28;20031;-76
2022/02/22 03:38:01;;;;;;;4.93;1.30;;;6.60;99.90;;;;;;4978426;28;20391;-77
2022/02/22 03:40:27;;;;;;;5.80;1.53;;;6.60;99.90;;;;;;4979215;28;20030;-77
2022/02/22 03:42:53;;;;;;;6.60;1.17;;;6.50;99.90;;;;;;4978295;28;20387;-77
2022/02/22 03:45:19;;;;;;;7.33;1.17;;;6.60;99.90;;;;;;4978764;28;20039;-76
2022/02/22 03:47:44;;;;;;;5.40;1.30;;;6.50;99.90;;;;;;4978625;28;20027;-76
2022/02/22 03:50:12;;;;;;;3.27;1.00;;;6.50;99.90;;;;;;4978172;28;20451;-76
2022/02/22 03:52:38;;;;;;;4.73;1.03;;;6.50;99.90;;;;;;4978664;28;20057;-77
2022/02/22 03:55:06;;;;;;;4.30;0.97;;;6.50;99.90;;;;;;4978198;28;20126;-77
2022/02/22 03:57:33;;;;;;;4.03;0.87;;;6.50;99.90;;;;;;4978838;28;20065;-77
2022/02/22 03:59:59;;;;;;;2.10;0.80;;;6.50;99.90;;;;;;4995398;28;20121;-77
2022/02/22 04:02:25;;;;;;;2.97;1.03;;;6.50;99.90;;;;;;4995862;28;20103;-77
2022/02/22 04:04:50;;;;;;;3.60;0.80;;;6.40;99.90;;;;;;4978497;28;20057;-77
2022/02/22 04:07:16;;;;;;;3.83;1.00;;;6.50;99.90;;;;;;4977949;28;20026;-77
2022/02/22 04:09:42;;;;;;;2.77;0.93;;;6.40;99.90;;;;;;4978292;28;20129;-77
2022/02/22 04:12:08;;;;;;;5.03;1.17;;;6.40;99.90;;;;;;4977746;28;20483;-77
2022/02/22 04:14:33;;;;;;;4.73;1.00;;;6.40;99.90;;;;;;4978297;28;20379;-77
2022/02/22 04:16:59;;;;;;;3.50;1.17;;;6.40;99.90;;;;;;4977725;28;20030;-77
2022/02/22 04:19:24;;;;;;;7.13;1.20;;;6.40;99.90;;;;;;4995584;28;20046;-77
2022/02/22 04:21:50;;;;;;;4.23;1.00;;;6.30;99.90;;;;;;4978504;28;20030;-77
2022/02/22 04:24:16;;;;;;;5.93;1.10;;;6.30;99.90;;;;;;4995118;28;20054;-78
2022/02/22 04:26:41;;;;;;;7.07;1.10;;;6.30;99.90;;;;;;4978311;28;20038;-78
2022/02/22 04:29:08;;;;;;;5.33;1.00;;;6.30;99.90;;;;;;4994710;28;20073;-77
2022/02/22 04:31:38;;;;;;;1.90;0.90;;;6.30;99.90;;;;;;4978068;28;20038;-77
2022/02/22 04:34:07;;;;;;;3.90;1.00;;;6.30;99.90;;;;;;4977787;28;20037;-78
2022/02/22 04:36:34;;;;;;;3.90;1.27;;;6.20;99.90;;;;;;4977496;28;20034;-76
2022/02/22 04:39:01;;;;;;;7.97;1.37;;;6.20;99.90;;;;;;4977260;28;20027;-77
2022/02/22 04:41:27;;;;;;;6.23;1.17;;;6.20;99.90;;;;;;4978082;28;20029;-77
2022/02/22 04:43:52;;;;;;;4.30;1.10;;;6.20;99.90;;;;;;4978028;28;20026;-77
2022/02/22 04:46:18;;;;;;;4.47;1.27;;;6.20;99.90;;;;;;4994051;28;20506;-77
2022/02/22 04:48:43;;;;;;;6.27;1.17;;;6.10;99.90;;;;;;4977997;28;20034;-77
2022/02/22 04:51:09;;;;;;;2.57;1.30;;;6.10;99.90;;;;;;4977476;28;20034;-77
2022/02/22 04:53:35;;;;;;;5.13;1.23;;;6.10;99.90;;;;;;4977729;28;20026;-77
2022/02/22 04:56:00;;;;;;;4.27;1.20;;;6.00;99.90;;;;;;4977374;28;20030;-77
2022/02/22 04:58:26;;;;;;;5.60;1.20;;;6.00;99.90;;;;;;4994752;28;20032;-76
2022/02/22 05:00:52;;;;;;;6.50;1.30;;;6.00;99.90;;;;;;4994697;28;20118;-76
2022/02/22 05:03:17;;;;;;;4.10;1.07;;;6.00;99.90;;;;;;4976855;28;20066;-76
2022/02/22 05:05:43;;;;;;;7.73;1.70;;;6.00;99.90;;;;;;4977393;28;20510;-76
2022/02/22 05:08:09;;;;;;;5.70;1.47;;;6.10;99.90;;;;;;4976688;28;20502;-76
2022/02/22 05:10:35;;;;;;;5.33;1.10;;;6.10;99.90;;;;;;4977030;28;20384;-76
2022/02/22 05:13:01;;;;;;;4.37;1.00;;;6.00;99.90;;;;;;4976711;28;20026;-77
2022/02/22 05:15:31;;;;;;;4.77;1.40;;;6.00;99.90;;;;;;4977144;28;20030;-77
2022/02/22 05:17:57;;;;;;;6.07;1.97;;;6.10;99.90;;;;;;4976638;28;20030;-77
2022/02/22 05:20:22;;;;;;;5.20;1.83;;;6.10;99.90;;;;;;4976939;28;20054;-77
2022/02/22 05:22:48;;;;;;;5.53;1.60;;;6.00;99.90;;;;;;4994257;28;20034;-76
2022/02/22 05:25:14;;;;;;;6.53;1.53;;;6.00;99.90;;;;;;4994040;28;20034;-77
2022/02/22 05:27:40;;;;;;;7.30;1.50;;;6.00;99.90;;;;;;4976878;28;20106;-77
2022/02/22 05:30:08;;;;;;;6.70;1.43;;;6.00;99.90;;;;;;4993645;28;20022;-77
2022/02/22 05:32:34;;;;;;;6.47;1.63;;;6.00;99.90;;;;;;4976914;28;20033;-77
2022/02/22 05:35:01;;;;;;;5.73;1.40;;;5.90;99.90;;;;;;4976342;28;20028;-76
2022/02/22 05:37:28;;;;;;;5.77;1.20;;;6.00;99.90;;;;;;4977041;28;20464;-77
2022/02/22 05:39:55;;;;;;;7.77;1.57;;;5.90;99.90;;;;;;4976898;28;20030;-76
2022/02/22 05:42:22;;;;;;;3.77;1.40;;;5.90;99.90;;;;;;4976402;28;20061;-76
2022/02/22 05:44:48;;;;;;;9.83;2.10;;;6.00;99.90;;;;;;4993719;28;20064;-76
2022/02/22 05:47:14;;;;;;;3.73;1.13;;;5.90;99.90;;;;;;4993404;28;20053;-76
2022/02/22 05:49:39;;;;;;;5.30;1.30;;;5.90;99.90;;;;;;4976618;28;20030;-77
2022/02/22 05:52:05;;;;;;;4.70;1.57;;;5.80;99.90;;;;;;4976386;28;20034;-77
2022/02/22 05:54:31;;;;;;;10.47;2.20;;;5.80;99.90;;;;;;4976788;28;20412;-77
2022/02/22 05:56:57;;;;;;;8.97;2.33;;;5.80;99.90;;;;;;4976894;28;20157;-77
2022/02/22 05:59:22;;;;;;;10.30;2.10;;;5.90;99.90;;;;;;4992354;28;20102;-77
2022/02/22 06:01:48;;;;;;;10.37;2.10;;;5.90;99.90;;;;;;4976602;28;20504;-77
2022/02/22 06:04:14;;;;;;;10.00;2.10;;;5.90;99.90;;;;;;4976050;28;20034;-77
2022/02/22 06:06:40;;;;;;;6.33;1.90;;;5.90;99.90;;;;;;4976612;28;20035;-77
2022/02/22 06:09:06;;;;;;;9.87;2.00;;;5.90;99.90;;;;;;4976221;28;20026;-77
2022/02/22 06:11:32;;;;;;;11.20;2.67;;;5.80;99.90;;;;;;4976483;28;20352;-77
2022/02/22 06:13:58;;;;;;;8.33;1.90;;;5.80;99.90;;;;;;4976522;28;20030;-77
2022/02/22 06:16:24;;;;;;;9.93;2.80;;;5.80;99.90;;;;;;4993317;28;20026;-77
2022/02/22 06:18:49;;;;;;;5.93;1.90;;;5.80;99.90;;;;;;4993565;28;20534;-77
2022/02/22 06:21:15;;;;;;;6.57;1.80;;;5.90;99.90;;;;;;4972117;28;20061;-77
2022/02/22 06:23:41;;;;;;;6.57;2.10;;;5.80;99.90;;;;;;4974327;28;20078;-77
2022/02/22 06:26:08;;;;;;;5.47;1.50;;;5.80;99.90;;;;;;4973771;28;20034;-77
2022/02/22 06:28:33;;;;;;;3.33;1.57;;;5.80;99.90;;;;;;4973000;28;20038;-77
2022/02/22 06:31:00;;;;;;;4.07;1.50;;;5.80;99.90;;;;;;4974264;28;20023;-76
2022/02/22 06:33:26;;;;;;;6.27;1.60;;;5.80;99.90;;;;;;4974072;28;20027;-77
2022/02/22 06:35:52;;;;;;;8.50;1.80;;;5.80;99.90;;;;;;4973147;28;20496;-77
2022/02/22 06:38:18;;;;;;;8.20;1.90;;;5.80;99.90;;;;;;4972778;28;20037;-77
2022/02/22 06:40:45;;;;;;;6.37;2.00;;;5.80;99.90;;;;;;4973148;28;20080;-78
2022/02/22 06:43:11;;;;;;;5.80;1.43;;;5.70;99.90;;;;;;4972603;28;20081;-77
2022/02/22 06:45:37;;;;;;;9.70;1.50;;;5.70;99.90;;;;;;4972945;28;20031;-77
2022/02/22 06:48:03;;;;;;;8.10;1.73;;;5.70;99.90;;;;;;4972757;28;20027;-78
2022/02/22 06:50:29;;;;;;;8.20;2.20;;;5.70;99.90;;;;;;4974199;28;20041;-77
2022/02/22 06:52:55;;;;;;;2.87;1.60;;;5.70;99.90;;;;;;4973087;28;20027;-78
2022/02/22 06:55:20;;;;;;;8.30;1.53;;;5.70;99.90;;;;;;4972573;28;20085;-77
2022/02/22 06:57:52;;;;;;;6.70;1.53;;;5.70;99.90;;;;;;4974386;28;20089;-77
2022/02/22 07:00:18;;;;;;;8.30;1.85;;;5.70;99.90;;;;;;4971722;28;20031;-77
2022/02/22 07:02:44;;;;;;;4.73;1.90;;;5.70;99.90;;;;;;4971892;28;20035;-77
2022/02/22 07:05:10;;;;;;;6.33;1.80;;;5.70;99.90;;;;;;4972133;28;20035;-77
2022/02/22 07:07:36;;;;;;;7.37;1.80;;;5.70;99.90;;;;;;4972862;28;20058;-76
2022/02/22 07:10:05;;;;;;;10.93;2.37;;;5.80;99.90;;;;;;4973687;28;20034;-76
2022/02/22 07:12:31;;;;;;;8.80;1.60;;;5.80;99.90;;;;;;4976511;28;20035;-77
2022/02/22 07:14:56;;;;;;;9.77;1.67;;;5.80;99.90;;;;;;4977179;28;20037;-77
2022/02/22 07:17:23;;;;;;;10.13;2.13;;;5.80;99.90;;;;;;4975604;28;20027;-77
2022/02/22 07:19:48;;;;;;;6.67;2.07;;;5.80;99.90;;;;;;4975859;28;20130;-77
2022/02/22 07:22:14;;;;;;;11.77;2.20;;;5.90;99.90;;;;;;4975340;28;20177;-77
2022/02/22 07:24:40;;;;;;;7.53;2.17;;;5.90;99.90;;;;;;4976105;28;20106;-76
2022/02/22 07:27:05;;;;;;;6.63;1.77;;;5.90;99.90;;;;;;4974178;28;20026;-77
2022/02/22 07:29:32;;;;;;;11.70;3.00;;;5.90;99.90;;;;;;4975616;28;20034;-77
2022/02/22 07:31:58;;;;;;;7.70;2.63;;;6.00;99.90;;;;;;4975966;28;20362;-76
2022/02/22 07:34:24;;;;;;;7.20;2.00;;;6.00;99.90;;;;;;4975400;28;20237;-77
2022/02/22 07:36:49;;;;;;;12.67;2.33;;;6.10;99.90;;;;;;4976919;28;20026;-76
2022/02/22 07:39:15;;;;;;;12.03;2.37;;;6.10;99.90;;;;;;4975024;28;20427;-77
2022/02/22 07:41:41;;;;;;;7.90;2.30;;;6.20;99.90;;;;;;4975653;28;20034;-77
2022/02/22 07:44:06;;;;;;;9.80;1.90;;;6.30;99.90;;;;;;4975211;28;20031;-77
2022/02/22 07:46:32;;;;;;;10.03;2.10;;;6.30;99.90;;;;;;4975490;28;20034;-77
2022/02/22 07:48:58;;;;;;;11.10;1.93;;;6.40;99.90;;;;;;4975237;28;20035;-77
2022/02/22 07:51:24;;;;;;;5.13;1.50;;;6.40;99.90;;;;;;4975678;28;20092;-77
2022/02/22 07:53:49;;;;;;;11.00;1.63;;;6.40;99.90;;;;;;4976570;28;20027;-77
2022/02/22 07:56:16;;;;;;;11.33;2.00;;;6.50;99.90;;;;;;4974745;28;20534;-76
2022/02/22 07:58:42;;;;;;;7.50;1.30;;;6.50;99.90;;;;;;4975372;28;20030;-76
2022/02/22 08:01:10;;;;;;;7.40;1.30;;;6.50;99.90;;;;;;4975825;28;20026;-76
2022/02/22 08:03:36;;;;;;;7.07;1.87;;;6.60;99.90;;;;;;4975447;28;20050;-79
2022/02/22 08:06:01;;;;;;;7.40;1.60;;;6.60;99.90;;;;;;4976775;28;20031;-78
2022/02/22 08:08:27;;;;;;;7.73;1.60;;;6.70;99.90;;;;;;4975116;28;20392;-77
2022/02/22 08:10:53;;;;;;;7.47;1.80;;;6.60;99.90;;;;;;4975138;28;20502;-78
2022/02/22 08:13:19;;;;;;;11.17;1.57;;;6.70;99.90;;;;;;4974726;28;20046;-77
2022/02/22 08:15:46;;;;;;;9.33;1.57;;;6.80;99.90;;;;;;4975107;28;20130;-78
2022/02/22 08:18:12;;;;;;;8.87;1.63;;;6.80;99.90;;;;;;4974336;28;20472;-76
2022/02/22 08:20:39;;;;;;;10.40;1.87;;;6.90;99.90;;;;;;4974689;28;20134;-78
2022/02/22 08:23:05;;;;;;;9.10;1.40;;;6.90;99.90;;;;;;4974240;28;20030;-78
2022/02/22 08:25:30;;;;;;;8.70;1.47;;;6.90;99.90;;;;;;4974261;28;20027;-77
2022/02/22 08:27:56;;;;;;;7.40;1.53;;;6.90;99.90;;;;;;4975205;28;20027;-77
2022/02/22 08:30:22;;;;;;;10.10;1.67;;;7.00;99.90;;;;;;4974404;28;20031;-77
2022/02/22 08:32:47;;;;;;;8.97;1.30;;;7.00;99.90;;;;;;4974768;28;20026;-78
2022/02/22 08:35:13;;;;;;;7.60;1.30;;;7.00;99.90;;;;;;4974273;28;20041;-78
2022/02/22 08:37:39;;;;;;;7.53;1.57;;;7.00;99.90;;;;;;4974904;28;20023;-79
2022/02/22 08:40:05;;;;;;;7.33;1.60;;;7.10;99.90;;;;;;4975700;28;20023;-78
2022/02/22 08:42:32;;;;;;;8.90;1.67;;;7.10;99.90;;;;;;4974259;28;20031;-78
2022/02/22 08:44:58;;;;;;;9.40;1.90;;;7.20;99.90;;;;;;4974529;28;20464;-78
2022/02/22 08:47:23;;;;;;;6.97;1.37;;;7.20;99.90;;;;;;4973823;28;20027;-77
2022/02/22 08:49:49;;;;;;;7.67;1.67;;;7.30;99.90;;;;;;4974245;28;20027;-78
2022/02/22 08:52:17;;;;;;;9.90;1.33;;;7.30;99.90;;;;;;4973778;28;20031;-78
2022/02/22 08:54:43;;;;;;;6.53;1.93;;;7.40;99.90;;;;;;4974624;28;20026;-77
2022/02/22 08:57:09;;;;;;;6.60;1.37;;;7.40;99.90;;;;;;4975306;28;20031;-78
2022/02/22 08:59:35;;;;;;;10.23;1.67;;;7.40;99.90;;;;;;4975160;28;20023;-77
2022/02/22 09:02:01;;;;;;;7.90;1.57;;;7.50;99.90;;;;;;4974415;28;20026;-77
2022/02/22 09:04:27;;;;;;;13.67;1.40;;;7.40;99.90;;;;;;4973868;28;20023;-77
2022/02/22 09:06:52;;;;;;;9.63;1.50;;;7.50;99.90;;;;;;4973759;28;20031;-77
2022/02/22 09:09:18;;;;;;;9.50;2.10;;;7.50;99.90;;;;;;4973606;28;20045;-77
2022/02/22 09:11:44;;;;;;;3.80;1.27;;;7.50;99.90;;;;;;4973750;28;20475;-77
2022/02/22 09:14:10;;;;;;;11.90;1.67;;;7.60;99.90;;;;;;4973715;28;20046;-77
2022/02/22 09:16:36;;;;;;;8.75;1.67;;;7.60;99.90;;;;;;4973941;28;20031;-77
2022/02/22 09:19:02;;;;;;;9.20;1.83;;;7.70;99.90;;;;;;4975247;28;20050;-77
2022/02/22 09:21:27;;;;;;;18.93;1.93;;;7.70;99.90;;;;;;4973287;28;20141;-77
2022/02/22 09:23:53;;;;;;;10.53;1.90;;;7.70;99.90;;;;;;4973874;28;20058;-79
2022/02/22 09:26:19;;;;;;;9.00;1.50;;;7.70;99.90;;;;;;4973412;28;20034;-78
2022/02/22 09:28:45;;;;;;;12.47;1.83;;;7.70;99.90;;;;;;4973961;28;20034;-78
2022/02/22 09:31:12;;;;;;;8.98;1.55;;;7.80;99.90;;;;;;4974007;28;20046;-76
2022/02/22 09:33:37;;;;;;;10.82;1.88;;;7.80;99.90;;;;;;4973880;28;20030;-77
2022/02/22 09:36:04;;;;;;;11.13;1.65;;;7.80;99.90;;;;;;4973701;28;20034;-77
2022/02/22 09:38:30;;;;;;;11.33;1.90;;;7.90;99.90;;;;;;4974791;28;20026;-76
2022/02/22 09:40:59;;;;;;;11.20;1.80;;;8.00;99.90;;;;;;4973440;28;20384;-77
2022/02/22 09:43:25;;;;;;;9.38;1.80;;;8.00;99.90;;;;;;4977553;28;20027;-76
2022/02/22 09:45:51;;;;;;;12.88;1.95;;;8.10;99.90;;;;;;4974344;28;20026;-76
2022/02/22 09:48:16;;;;;;;16.10;2.42;;;8.20;99.90;;;;;;4972291;28;20072;-77
2022/02/22 09:50:42;;;;;;;5.35;1.75;;;8.30;99.90;;;;;;4972896;28;20059;-77
2022/02/22 09:53:08;;;;;;;10.18;1.98;;;8.40;99.90;;;;;;4973605;28;20034;-77
2022/02/22 09:55:34;;;;;;;12.40;1.92;;;8.50;99.90;;;;;;4971051;28;20026;-76
2022/02/22 09:58:00;;;;;;;11.05;1.95;;;8.60;99.90;;;;;;4968610;28;20018;-76
2022/02/22 10:00:31;;;;;;;10.10;1.88;;;8.50;99.90;;;;;;4970352;28;20057;-77
2022/02/22 10:02:58;;;;;;;7.95;2.65;;;8.50;99.90;;;;;;4971637;28;20026;-77
2022/02/22 10:05:25;;;;;;;8.63;2.35;;;8.50;99.90;;;;;;4971485;28;20635;-77
2022/02/22 10:07:54;;;;;;;11.32;2.40;;;8.50;99.90;;;;;;4971152;28;20027;-77
2022/02/22 10:10:41;;;;;;;9.70;2.03;;;8.60;99.90;;;;;;4970594;28;20023;-77
2022/02/22 10:13:08;;;;;;;14.20;1.90;;;8.60;99.90;;;;;;4971044;28;20150;-77
2022/02/22 10:15:38;;;;;;;13.18;1.77;;;8.60;99.90;;;;;;4970704;28;20042;-78
2022/02/22 10:18:05;;;;;;;14.40;2.22;;;8.70;99.90;;;;;;4971818;28;20031;-77
2022/02/22 10:20:30;;;;;;;10.25;2.00;;;8.70;99.90;;;;;;4973760;28;20054;-78
2022/02/22 10:22:57;;;;;;;10.18;2.47;;;8.60;99.90;;;;;;4967613;28;20120;-81
2022/02/22 10:25:25;;;;;;;9.75;2.30;;;8.60;99.90;;;;;;4972603;28;20118;-80
2022/02/22 10:28:02;;;;;;;12.07;2.88;;;8.50;99.90;;;;;;4970896;28;20030;-76
2022/02/22 10:30:29;;;;;;;12.30;2.22;;;8.50;99.90;;;;;;4971322;28;20476;-76
2022/02/22 10:32:56;;;;;;;13.82;2.40;;;8.60;99.90;;;;;;4971700;28;20108;-76
2022/02/22 10:35:27;;;;;;;10.05;2.25;;;8.50;99.90;;;;;;4971715;28;20035;-76
2022/02/22 10:37:53;;;;;;;10.25;2.25;;;8.50;99.90;;;;;;4971588;28;20383;-76
2022/02/22 10:40:26;;;;;;;16.17;3.05;;;8.40;99.90;;;;;;4971589;28;20023;-76
2022/02/22 10:42:52;;;;;;;12.38;2.20;;;8.40;99.90;;;;;;4972262;28;20120;-76
2022/02/22 10:45:20;;;;;;;13.75;2.58;;;8.40;99.90;;;;;;4972784;28;20066;-76
2022/02/22 10:47:47;;;;;;;15.52;2.40;;;8.40;99.90;;;;;;4977032;28;20043;-76
2022/02/22 10:50:13;;;;;;;11.70;2.50;;;8.40;99.90;;;;;;4975586;28;20113;-76
2022/02/22 10:52:39;;;;;;;14.82;2.10;;;8.40;99.90;;;;;;4975109;28;20027;-76
2022/02/22 10:55:05;;;;;;;11.32;2.63;;;8.50;99.90;;;;;;4975757;28;20018;-75
2022/02/22 10:57:32;;;;;;;16.40;2.30;;;8.60;99.90;;;;;;4974151;28;20110;-76
2022/02/22 10:59:57;;;;;;;13.95;2.42;;;8.70;99.90;;;;;;4974882;28;20031;-77
2022/02/22 11:02:23;;;;;;;11.05;2.65;;;8.80;99.90;;;;;;4976374;28;20536;-77
2022/02/22 11:04:49;;;;;;;16.73;2.33;;;8.80;99.90;;;;;;4976863;28;20031;-76
2022/02/22 11:07:18;;;;;;;18.02;3.03;;;8.90;99.90;;;;;;4975175;28;20039;-77
2022/02/22 11:09:47;;;;;;;15.73;2.60;;;8.90;99.90;;;;;;4975658;28;20053;-76
2022/02/22 11:12:32;;;;;;;15.27;3.08;;;8.90;99.90;;;;;;4975393;28;20494;-76
2022/02/22 11:15:09;;;;;;;10.65;2.33;;;9.00;99.90;;;;;;4975380;28;20034;-77
2022/02/22 11:17:47;;;;;;;14.57;2.30;;;8.80;99.90;;;;;;4974340;28;20031;-76
2022/02/22 11:20:25;;;;;;;12.90;2.00;;;8.90;99.90;;;;;;4983318;28;20056;-76
2022/02/22 11:22:55;;;;;;;13.00;2.15;;;9.00;99.90;;;;;;4978490;28;20023;-75
2022/02/22 11:25:30;;;;;;;15.50;2.58;;;9.10;99.90;;;;;;4995007;28;20464;-77
2022/02/22 11:28:07;;;;;;;14.45;2.35;;;9.10;99.90;;;;;;4977863;28;20034;-77
2022/02/22 11:30:34;;;;;;;14.40;2.28;;;9.20;99.90;;;;;;4977180;28;20471;-77
2022/02/22 11:33:00;;;;;;;13.75;2.20;;;9.20;99.90;;;;;;4994919;28;20023;-76
2022/02/22 11:35:28;;;;;;;13.95;2.17;;;9.30;99.90;;;;;;4977078;28;20035;-77
2022/02/22 11:38:07;;;;;;;13.57;1.88;;;9.30;99.90;;;;;;4977194;28;20070;-77
2022/02/22 11:40:34;;;;;;;13.45;2.40;;;9.30;99.90;;;;;;4994742;28;20031;-78
2022/02/22 11:43:08;;;;;;;15.60;2.63;;;9.30;99.90;;;;;;4995369;28;20101;-78
2022/02/22 11:45:34;;;;;;;9.77;1.85;;;9.40;99.90;;;;;;4977104;28;20031;-78
2022/02/22 11:48:19;;;;;;;13.02;3.03;;;9.40;99.90;;;;;;4977167;28;20377;-77
2022/02/22 11:50:50;;;;;;;15.68;2.72;;;9.40;99.90;;;;;;4977623;28;20077;-75
2022/02/22 11:53:22;;;;;;;12.48;2.13;;;9.50;99.90;;;;;;4994166;28;20030;-76
2022/02/22 11:55:49;;;;;;;20.75;2.42;;;9.50;99.90;;;;;;4977095;28;20034;-77
2022/02/22 11:58:22;;;;;;;17.20;2.83;;;9.40;99.90;;;;;;4993231;28;20018;-78
2022/02/22 12:00:50;;;;;;;16.67;3.05;;;9.50;99.90;;;;;;4978005;28;20034;-78
2022/02/22 12:03:18;;;;;;;15.60;2.42;;;9.50;99.90;;;;;;4978168;28;20034;-76
2022/02/22 12:05:51;;;;;;;15.20;2.40;;;9.60;99.90;;;;;;4977720;28;20030;-76
2022/02/22 12:08:20;;;;;;;16.65;2.63;;;9.60;99.90;;;;;;4977774;28;20023;-76
2022/02/22 12:10:49;;;;;;;10.52;2.05;;;9.80;99.90;;;;;;4978021;28;20535;-76
2022/02/22 12:13:18;;;;;;;18.65;2.38;;;9.80;99.90;;;;;;4977402;28;20539;-75
2022/02/22 12:15:44;;;;;;;17.92;2.38;;;9.90;99.90;;;;;;4977077;28;20509;-75
2022/02/22 12:18:17;;;;;;;16.40;2.78;;;9.90;99.90;;;;;;4977062;28;20031;-75
2022/02/22 12:20:45;;;;;;;11.45;2.00;;;9.80;99.90;;;;;;4976562;28;20050;-75
2022/02/22 12:23:25;;;;;;;13.60;1.92;;;9.80;99.90;;;;;;4983913;28;20023;-77
2022/02/22 12:25:53;;;;;;;11.65;2.10;;;9.70;99.90;;;;;;4974060;28;20027;-75
2022/02/22 12:28:21;;;;;;;12.00;1.60;;;9.70;99.90;;;;;;4993294;28;20026;-77
2022/02/22 12:30:48;;;;;;;14.57;2.30;;;9.70;99.90;;;;;;4977563;28;20026;-75
2022/02/22 12:33:16;;;;;;;16.33;2.55;;;9.80;99.90;;;;;;4977000;28;20097;-76
2022/02/22 12:35:47;;;;;;;13.43;1.90;;;9.80;99.90;;;;;;4977213;28;20060;-76
2022/02/22 12:38:18;;;;;;;10.32;2.00;;;9.80;99.90;;;;;;4976900;28;20032;-74
2022/02/22 12:40:47;;;;;;;13.38;2.38;;;9.80;99.90;;;;;;4976684;28;20080;-75
2022/02/22 12:43:14;;;;;;;8.95;1.85;;;9.80;99.90;;;;;;4976959;28;20084;-76
2022/02/22 12:45:46;;;;;;;9.57;1.90;;;9.90;99.90;;;;;;4993907;28;20023;-76
2022/02/22 12:48:15;;;;;;;12.15;1.92;;;9.90;99.90;;;;;;4976782;28;20081;-76
2022/02/22 12:50:40;;;;;;;13.35;2.17;;;9.90;99.90;;;;;;4993786;28;20033;-76